sensor_id;sensor_type;location;lat;lon;timestamp;temperature;humidity
76040;SHT30;64736;50.462;4.850;2023-05-07T00:01:50;14.41;83.85
76040;SHT30;64736;50.462;4.850;2023-05-07T00:04:15;14.50;83.69
76040;SHT30;64736;50.462;4.850;2023-05-07T00:06:41;14.54;83.27
76040;SHT30;64736;50.462;4.850;2023-05-07T00:09:07;14.53;83.30
76040;SHT30;64736;50.462;4.850;2023-05-07T00:11:33;14.50;83.38
76040;SHT30;64736;50.462;4.850;2023-05-07T00:14:00;14.57;83.25
76040;SHT30;64736;50.462;4.850;2023-05-07T00:16:26;14.48;83.50
76040;SHT30;64736;50.462;4.850;2023-05-07T00:18:52;14.50;83.52
76040;SHT30;64736;50.462;4.850;2023-05-07T00:21:18;14.54;83.48
76040;SHT30;64736;50.462;4.850;2023-05-07T00:23:44;14.51;83.57
76040;SHT30;64736;50.462;4.850;2023-05-07T00:26:09;14.50;83.44
76040;SHT30;64736;50.462;4.850;2023-05-07T00:28:35;14.51;83.59
76040;SHT30;64736;50.462;4.850;2023-05-07T00:31:01;14.41;83.94
76040;SHT30;64736;50.462;4.850;2023-05-07T00:33:27;14.46;84.06
76040;SHT30;64736;50.462;4.850;2023-05-07T00:35:52;14.71;83.23
76040;SHT30;64736;50.462;4.850;2023-05-07T00:38:20;14.57;83.39
76040;SHT30;64736;50.462;4.850;2023-05-07T00:40:46;14.57;83.58
76040;SHT30;64736;50.462;4.850;2023-05-07T00:43:11;14.48;84.01
76040;SHT30;64736;50.462;4.850;2023-05-07T00:45:38;14.68;83.54
76040;SHT30;64736;50.462;4.850;2023-05-07T00:48:04;14.59;83.78
76040;SHT30;64736;50.462;4.850;2023-05-07T00:50:31;14.63;83.76
76040;SHT30;64736;50.462;4.850;2023-05-07T00:52:58;14.51;83.98
76040;SHT30;64736;50.462;4.850;2023-05-07T00:55:24;14.56;84.02
76040;SHT30;64736;50.462;4.850;2023-05-07T00:57:50;14.60;83.72
76040;SHT30;64736;50.462;4.850;2023-05-07T01:00:18;14.41;84.41
76040;SHT30;64736;50.462;4.850;2023-05-07T01:02:44;14.26;85.38
76040;SHT30;64736;50.462;4.850;2023-05-07T01:05:16;14.32;85.13
76040;SHT30;64736;50.462;4.850;2023-05-07T01:07:43;14.37;84.97
76040;SHT30;64736;50.462;4.850;2023-05-07T01:10:10;14.41;84.93
76040;SHT30;64736;50.462;4.850;2023-05-07T01:12:37;14.27;85.04
76040;SHT30;64736;50.462;4.850;2023-05-07T01:15:05;14.33;85.12
76040;SHT30;64736;50.462;4.850;2023-05-07T01:17:39;14.51;84.59
76040;SHT30;64736;50.462;4.850;2023-05-07T01:20:06;14.67;84.07
76040;SHT30;64736;50.462;4.850;2023-05-07T01:22:37;14.56;84.09
76040;SHT30;64736;50.462;4.850;2023-05-07T01:25:04;14.50;84.43
76040;SHT30;64736;50.462;4.850;2023-05-07T01:27:30;14.44;84.59
76040;SHT30;64736;50.462;4.850;2023-05-07T01:29:56;14.36;84.91
76040;SHT30;64736;50.462;4.850;2023-05-07T01:32:43;14.37;84.97
76040;SHT30;64736;50.462;4.850;2023-05-07T01:35:15;14.27;85.16
76040;SHT30;64736;50.462;4.850;2023-05-07T01:37:50;14.23;85.53
76040;SHT30;64736;50.462;4.850;2023-05-07T01:40:16;14.44;85.03
76040;SHT30;64736;50.462;4.850;2023-05-07T01:42:43;14.38;85.09
76040;SHT30;64736;50.462;4.850;2023-05-07T01:45:09;14.34;85.26
76040;SHT30;64736;50.462;4.850;2023-05-07T01:47:36;14.33;85.33
76040;SHT30;64736;50.462;4.850;2023-05-07T01:50:06;14.51;85.01
76040;SHT30;64736;50.462;4.850;2023-05-07T01:52:34;14.59;84.51
76040;SHT30;64736;50.462;4.850;2023-05-07T01:55:00;14.46;84.84
76040;SHT30;64736;50.462;4.850;2023-05-07T01:57:26;14.46;84.93
76040;SHT30;64736;50.462;4.850;2023-05-07T01:59:51;14.29;85.19
76040;SHT30;64736;50.462;4.850;2023-05-07T02:02:17;14.22;85.85
76040;SHT30;64736;50.462;4.850;2023-05-07T02:04:43;14.12;86.31
76040;SHT30;64736;50.462;4.850;2023-05-07T02:07:09;14.13;86.37
76040;SHT30;64736;50.462;4.850;2023-05-07T02:09:35;14.36;85.68
76040;SHT30;64736;50.462;4.850;2023-05-07T02:12:01;14.29;85.62
76040;SHT30;64736;50.462;4.850;2023-05-07T02:14:27;14.12;86.25
76040;SHT30;64736;50.462;4.850;2023-05-07T02:16:52;14.10;86.13
76040;SHT30;64736;50.462;4.850;2023-05-07T02:19:18;13.95;86.69
76040;SHT30;64736;50.462;4.850;2023-05-07T02:21:47;13.83;87.34
76040;SHT30;64736;50.462;4.850;2023-05-07T02:24:13;13.65;87.69
76040;SHT30;64736;50.462;4.850;2023-05-07T02:26:41;13.51;88.63
76040;SHT30;64736;50.462;4.850;2023-05-07T02:29:07;13.46;88.75
76040;SHT30;64736;50.462;4.850;2023-05-07T02:31:33;13.59;88.34
76040;SHT30;64736;50.462;4.850;2023-05-07T02:34:02;13.59;88.12
76040;SHT30;64736;50.462;4.850;2023-05-07T02:36:27;13.57;88.10
76040;SHT30;64736;50.462;4.850;2023-05-07T02:38:54;13.67;87.97
76040;SHT30;64736;50.462;4.850;2023-05-07T02:41:20;13.74;87.77
76040;SHT30;64736;50.462;4.850;2023-05-07T02:43:46;13.77;87.33
76040;SHT30;64736;50.462;4.850;2023-05-07T02:46:11;13.69;87.33
76040;SHT30;64736;50.462;4.850;2023-05-07T02:48:38;13.62;87.49
76040;SHT30;64736;50.462;4.850;2023-05-07T02:51:04;13.50;88.13
76040;SHT30;64736;50.462;4.850;2023-05-07T02:53:31;13.57;87.99
76040;SHT30;64736;50.462;4.850;2023-05-07T02:55:58;13.65;87.41
76040;SHT30;64736;50.462;4.850;2023-05-07T02:58:24;13.65;87.53
76040;SHT30;64736;50.462;4.850;2023-05-07T03:00:51;13.65;87.36
76040;SHT30;64736;50.462;4.850;2023-05-07T03:03:16;13.53;87.77
76040;SHT30;64736;50.462;4.850;2023-05-07T03:05:42;13.31;88.46
76040;SHT30;64736;50.462;4.850;2023-05-07T03:08:08;13.27;89.09
76040;SHT30;64736;50.462;4.850;2023-05-07T03:10:35;13.50;88.39
76040;SHT30;64736;50.462;4.850;2023-05-07T03:13:01;13.65;87.70
76040;SHT30;64736;50.462;4.850;2023-05-07T03:15:27;13.72;87.32
76040;SHT30;64736;50.462;4.850;2023-05-07T03:17:53;13.74;87.43
76040;SHT30;64736;50.462;4.850;2023-05-07T03:20:18;13.69;87.50
76040;SHT30;64736;50.462;4.850;2023-05-07T03:22:44;13.55;88.18
76040;SHT30;64736;50.462;4.850;2023-05-07T03:25:10;13.51;88.37
76040;SHT30;64736;50.462;4.850;2023-05-07T03:27:36;13.48;88.39
76040;SHT30;64736;50.462;4.850;2023-05-07T03:30:04;13.46;88.50
76040;SHT30;64736;50.462;4.850;2023-05-07T03:32:29;13.36;88.99
76040;SHT30;64736;50.462;4.850;2023-05-07T03:34:55;13.21;89.21
76040;SHT30;64736;50.462;4.850;2023-05-07T03:37:21;13.34;89.26
76040;SHT30;64736;50.462;4.850;2023-05-07T03:39:47;13.28;89.03
76040;SHT30;64736;50.462;4.850;2023-05-07T03:42:13;13.19;89.03
76040;SHT30;64736;50.462;4.850;2023-05-07T03:44:38;13.26;88.80
76040;SHT30;64736;50.462;4.850;2023-05-07T03:47:04;13.20;88.88
76040;SHT30;64736;50.462;4.850;2023-05-07T03:49:30;13.02;89.16
76040;SHT30;64736;50.462;4.850;2023-05-07T03:51:56;13.13;89.03
76040;SHT30;64736;50.462;4.850;2023-05-07T03:54:21;13.13;89.01
76040;SHT30;64736;50.462;4.850;2023-05-07T03:56:47;13.07;89.19
76040;SHT30;64736;50.462;4.850;2023-05-07T03:59:13;13.10;89.04
76040;SHT30;64736;50.462;4.850;2023-05-07T04:01:39;12.97;89.41
76040;SHT30;64736;50.462;4.850;2023-05-07T04:04:05;13.03;89.46
76040;SHT30;64736;50.462;4.850;2023-05-07T04:06:31;12.90;89.63
76040;SHT30;64736;50.462;4.850;2023-05-07T04:08:57;12.90;89.84
76040;SHT30;64736;50.462;4.850;2023-05-07T04:11:22;13.07;89.59
76040;SHT30;64736;50.462;4.850;2023-05-07T04:13:48;13.07;89.44
76040;SHT30;64736;50.462;4.850;2023-05-07T04:16:14;13.10;89.19
76040;SHT30;64736;50.462;4.850;2023-05-07T04:18:41;13.16;88.91
76040;SHT30;64736;50.462;4.850;2023-05-07T04:21:15;13.14;89.02
76040;SHT30;64736;50.462;4.850;2023-05-07T04:23:41;12.97;89.51
76040;SHT30;64736;50.462;4.850;2023-05-07T04:26:06;13.02;89.95
76040;SHT30;64736;50.462;4.850;2023-05-07T04:28:32;13.10;89.68
76040;SHT30;64736;50.462;4.850;2023-05-07T04:30:58;13.04;89.69
76040;SHT30;64736;50.462;4.850;2023-05-07T04:33:24;13.06;89.72
76040;SHT30;64736;50.462;4.850;2023-05-07T04:35:49;12.99;90.01
76040;SHT30;64736;50.462;4.850;2023-05-07T04:38:15;13.19;89.56
76040;SHT30;64736;50.462;4.850;2023-05-07T04:40:42;13.13;89.59
76040;SHT30;64736;50.462;4.850;2023-05-07T04:43:07;13.06;89.94
76040;SHT30;64736;50.462;4.850;2023-05-07T04:45:35;13.16;89.84
76040;SHT30;64736;50.462;4.850;2023-05-07T04:48:01;13.34;89.36
76040;SHT30;64736;50.462;4.850;2023-05-07T04:50:26;13.44;88.81
76040;SHT30;64736;50.462;4.850;2023-05-07T04:52:52;13.41;89.07
76040;SHT30;64736;50.462;4.850;2023-05-07T04:55:18;13.50;88.88
76040;SHT30;64736;50.462;4.850;2023-05-07T04:57:44;13.44;88.94
76040;SHT30;64736;50.462;4.850;2023-05-07T05:00:11;13.44;89.16
76040;SHT30;64736;50.462;4.850;2023-05-07T05:02:40;13.38;88.96
76040;SHT30;64736;50.462;4.850;2023-05-07T05:05:06;13.24;89.59
76040;SHT30;64736;50.462;4.850;2023-05-07T05:07:32;13.06;90.25
76040;SHT30;64736;50.462;4.850;2023-05-07T05:09:58;13.11;90.42
76040;SHT30;64736;50.462;4.850;2023-05-07T05:12:24;13.09;90.73
76040;SHT30;64736;50.462;4.850;2023-05-07T05:14:50;13.16;90.50
76040;SHT30;64736;50.462;4.850;2023-05-07T05:17:16;13.17;90.20
76040;SHT30;64736;50.462;4.850;2023-05-07T05:19:42;13.16;90.04
76040;SHT30;64736;50.462;4.850;2023-05-07T05:22:07;13.17;90.22
76040;SHT30;64736;50.462;4.850;2023-05-07T05:24:33;13.09;90.36
76040;SHT30;64736;50.462;4.850;2023-05-07T05:26:59;13.16;90.37
76040;SHT30;64736;50.462;4.850;2023-05-07T05:29:26;13.26;90.21
76040;SHT30;64736;50.462;4.850;2023-05-07T05:31:52;13.33;89.69
76040;SHT30;64736;50.462;4.850;2023-05-07T05:34:18;13.31;89.63
76040;SHT30;64736;50.462;4.850;2023-05-07T05:36:45;13.31;89.58
76040;SHT30;64736;50.462;4.850;2023-05-07T05:39:11;13.36;89.52
76040;SHT30;64736;50.462;4.850;2023-05-07T05:41:36;13.40;89.40
76040;SHT30;64736;50.462;4.850;2023-05-07T05:44:02;13.47;89.28
76040;SHT30;64736;50.462;4.850;2023-05-07T05:46:28;13.62;88.52
76040;SHT30;64736;50.462;4.850;2023-05-07T05:48:53;13.77;87.87
76040;SHT30;64736;50.462;4.850;2023-05-07T05:51:21;13.86;87.71
76040;SHT30;64736;50.462;4.850;2023-05-07T05:53:46;13.90;87.15
76040;SHT30;64736;50.462;4.850;2023-05-07T05:56:12;13.82;87.39
76040;SHT30;64736;50.462;4.850;2023-05-07T05:58:38;13.83;86.93
76040;SHT30;64736;50.462;4.850;2023-05-07T06:01:04;13.88;86.50
76040;SHT30;64736;50.462;4.850;2023-05-07T06:03:30;13.90;86.84
76040;SHT30;64736;50.462;4.850;2023-05-07T06:05:57;14.06;86.45
76040;SHT30;64736;50.462;4.850;2023-05-07T06:08:23;14.02;86.47
76040;SHT30;64736;50.462;4.850;2023-05-07T06:10:49;14.16;86.10
76040;SHT30;64736;50.462;4.850;2023-05-07T06:13:15;14.12;86.14
76040;SHT30;64736;50.462;4.850;2023-05-07T06:15:41;14.10;86.20
76040;SHT30;64736;50.462;4.850;2023-05-07T06:18:06;14.19;85.82
76040;SHT30;64736;50.462;4.850;2023-05-07T06:20:32;14.34;85.33
76040;SHT30;64736;50.462;4.850;2023-05-07T06:22:58;14.25;85.53
76040;SHT30;64736;50.462;4.850;2023-05-07T06:25:24;14.25;85.65
76040;SHT30;64736;50.462;4.850;2023-05-07T06:27:49;14.29;85.51
76040;SHT30;64736;50.462;4.850;2023-05-07T06:30:15;14.47;85.10
76040;SHT30;64736;50.462;4.850;2023-05-07T06:32:41;14.53;84.63
76040;SHT30;64736;50.462;4.850;2023-05-07T06:35:07;14.70;84.59
76040;SHT30;64736;50.462;4.850;2023-05-07T06:37:33;14.68;84.09
76040;SHT30;64736;50.462;4.850;2023-05-07T06:39:58;15.43;81.85
76040;SHT30;64736;50.462;4.850;2023-05-07T06:42:24;15.56;81.64
76040;SHT30;64736;50.462;4.850;2023-05-07T06:44:50;15.73;80.88
76040;SHT30;64736;50.462;4.850;2023-05-07T06:47:15;15.91;80.47
76040;SHT30;64736;50.462;4.850;2023-05-07T06:49:41;15.91;80.26
76040;SHT30;64736;50.462;4.850;2023-05-07T06:52:07;15.96;79.81
76040;SHT30;64736;50.462;4.850;2023-05-07T06:54:32;15.87;80.20
76040;SHT30;64736;50.462;4.850;2023-05-07T06:56:58;15.93;80.31
76040;SHT30;64736;50.462;4.850;2023-05-07T06:59:24;16.08;79.69
76040;SHT30;64736;50.462;4.850;2023-05-07T07:01:52;16.07;79.38
76040;SHT30;64736;50.462;4.850;2023-05-07T07:04:18;16.22;79.07
76040;SHT30;64736;50.462;4.850;2023-05-07T07:06:43;16.36;79.22
76040;SHT30;64736;50.462;4.850;2023-05-07T07:09:09;16.33;79.53
76040;SHT30;64736;50.462;4.850;2023-05-07T07:11:35;16.21;80.16
76040;SHT30;64736;50.462;4.850;2023-05-07T07:14:00;16.21;81.57
76040;SHT30;64736;50.462;4.850;2023-05-07T07:16:26;16.24;81.35
76040;SHT30;64736;50.462;4.850;2023-05-07T07:18:52;16.14;80.67
76040;SHT30;64736;50.462;4.850;2023-05-07T07:21:17;16.17;80.82
76040;SHT30;64736;50.462;4.850;2023-05-07T07:23:43;16.11;81.09
76040;SHT30;64736;50.462;4.850;2023-05-07T07:26:09;16.11;81.49
76040;SHT30;64736;50.462;4.850;2023-05-07T07:28:34;16.01;81.03
76040;SHT30;64736;50.462;4.850;2023-05-07T07:31:00;15.90;80.64
76040;SHT30;64736;50.462;4.850;2023-05-07T07:33:26;15.90;81.47
76040;SHT30;64736;50.462;4.850;2023-05-07T07:35:52;15.93;81.00
76040;SHT30;64736;50.462;4.850;2023-05-07T07:38:17;15.86;81.47
76040;SHT30;64736;50.462;4.850;2023-05-07T07:40:43;15.78;82.40
76040;SHT30;64736;50.462;4.850;2023-05-07T07:43:09;15.66;83.45
76040;SHT30;64736;50.462;4.850;2023-05-07T07:45:35;15.63;83.53
76040;SHT30;64736;50.462;4.850;2023-05-07T07:48:01;15.56;83.54
76040;SHT30;64736;50.462;4.850;2023-05-07T07:50:26;15.57;83.71
76040;SHT30;64736;50.462;4.850;2023-05-07T07:52:52;15.60;84.40
76040;SHT30;64736;50.462;4.850;2023-05-07T07:55:20;15.64;85.42
76040;SHT30;64736;50.462;4.850;2023-05-07T07:57:49;15.63;85.73
76040;SHT30;64736;50.462;4.850;2023-05-07T08:00:15;15.61;84.81
76040;SHT30;64736;50.462;4.850;2023-05-07T08:02:41;15.70;84.71
76040;SHT30;64736;50.462;4.850;2023-05-07T08:05:08;15.70;84.16
76040;SHT30;64736;50.462;4.850;2023-05-07T08:07:33;15.77;84.69
76040;SHT30;64736;50.462;4.850;2023-05-07T08:09:59;15.77;84.32
76040;SHT30;64736;50.462;4.850;2023-05-07T08:12:25;15.81;84.51
76040;SHT30;64736;50.462;4.850;2023-05-07T08:14:51;15.76;83.61
76040;SHT30;64736;50.462;4.850;2023-05-07T08:17:16;15.78;84.52
76040;SHT30;64736;50.462;4.850;2023-05-07T08:19:42;15.90;82.92
76040;SHT30;64736;50.462;4.850;2023-05-07T08:22:09;15.84;82.96
76040;SHT30;64736;50.462;4.850;2023-05-07T08:24:36;15.94;82.89
76040;SHT30;64736;50.462;4.850;2023-05-07T08:27:02;15.74;83.89
76040;SHT30;64736;50.462;4.850;2023-05-07T08:29:28;16.02;83.66
76040;SHT30;64736;50.462;4.850;2023-05-07T08:31:53;16.25;82.28
76040;SHT30;64736;50.462;4.850;2023-05-07T08:34:20;15.64;83.81
76040;SHT30;64736;50.462;4.850;2023-05-07T08:36:46;16.17;84.20
76040;SHT30;64736;50.462;4.850;2023-05-07T08:39:15;16.45;81.73
76040;SHT30;64736;50.462;4.850;2023-05-07T08:41:45;16.32;82.72
76040;SHT30;64736;50.462;4.850;2023-05-07T08:44:13;16.48;83.30
76040;SHT30;64736;50.462;4.850;2023-05-07T08:46:41;16.48;83.18
76040;SHT30;64736;50.462;4.850;2023-05-07T08:49:09;16.51;83.41
76040;SHT30;64736;50.462;4.850;2023-05-07T08:51:35;16.49;83.19
76040;SHT30;64736;50.462;4.850;2023-05-07T08:54:01;16.32;83.97
76040;SHT30;64736;50.462;4.850;2023-05-07T08:56:27;16.36;83.95
76040;SHT30;64736;50.462;4.850;2023-05-07T08:58:53;16.52;83.76
76040;SHT30;64736;50.462;4.850;2023-05-07T09:01:24;16.62;83.12
76040;SHT30;64736;50.462;4.850;2023-05-07T09:03:51;15.86;84.80
76040;SHT30;64736;50.462;4.850;2023-05-07T09:06:18;16.41;84.17
76040;SHT30;64736;50.462;4.850;2023-05-07T09:08:51;16.52;84.25
76040;SHT30;64736;50.462;4.850;2023-05-07T09:11:24;16.59;84.88
76040;SHT30;64736;50.462;4.850;2023-05-07T09:13:57;16.62;85.62
76040;SHT30;64736;50.462;4.850;2023-05-07T09:16:30;16.66;85.27
76040;SHT30;64736;50.462;4.850;2023-05-07T09:18:58;16.69;84.95
76040;SHT30;64736;50.462;4.850;2023-05-07T09:21:24;16.72;86.12
76040;SHT30;64736;50.462;4.850;2023-05-07T09:23:51;16.67;86.37
76040;SHT30;64736;50.462;4.850;2023-05-07T09:26:18;16.51;86.55
76040;SHT30;64736;50.462;4.850;2023-05-07T09:28:44;16.38;88.16
76040;SHT30;64736;50.462;4.850;2023-05-07T09:31:11;16.36;89.14
76040;SHT30;64736;50.462;4.850;2023-05-07T09:33:37;16.18;90.01
76040;SHT30;64736;50.462;4.850;2023-05-07T09:36:05;16.04;90.54
76040;SHT30;64736;50.462;4.850;2023-05-07T09:38:32;15.91;90.42
76040;SHT30;64736;50.462;4.850;2023-05-07T09:41:16;16.09;91.36
76040;SHT30;64736;50.462;4.850;2023-05-07T09:43:42;16.00;91.17
76040;SHT30;64736;50.462;4.850;2023-05-07T09:46:15;15.93;92.08
76040;SHT30;64736;50.462;4.850;2023-05-07T09:48:43;16.00;92.83
76040;SHT30;64736;50.462;4.850;2023-05-07T09:51:24;16.15;92.79
76040;SHT30;64736;50.462;4.850;2023-05-07T09:53:54;16.26;92.28
76040;SHT30;64736;50.462;4.850;2023-05-07T09:56:20;16.32;91.32
76040;SHT30;64736;50.462;4.850;2023-05-07T09:58:46;16.33;91.60
76040;SHT30;64736;50.462;4.850;2023-05-07T10:01:12;16.24;92.01
76040;SHT30;64736;50.462;4.850;2023-05-07T10:03:43;16.21;92.24
76040;SHT30;64736;50.462;4.850;2023-05-07T10:06:13;16.19;92.04
76040;SHT30;64736;50.462;4.850;2023-05-07T10:08:39;16.25;91.69
76040;SHT30;64736;50.462;4.850;2023-05-07T10:11:05;16.38;91.63
76040;SHT30;64736;50.462;4.850;2023-05-07T10:13:35;16.38;90.95
76040;SHT30;64736;50.462;4.850;2023-05-07T10:16:04;16.15;91.70
76040;SHT30;64736;50.462;4.850;2023-05-07T10:18:31;16.14;90.44
76040;SHT30;64736;50.462;4.850;2023-05-07T10:21:20;16.38;90.82
76040;SHT30;64736;50.462;4.850;2023-05-07T10:26:50;16.32;91.09
76040;SHT30;64736;50.462;4.850;2023-05-07T10:35:24;16.32;89.95
76040;SHT30;64736;50.462;4.850;2023-05-07T10:37:51;16.74;89.19
76040;SHT30;64736;50.462;4.850;2023-05-07T10:40:18;16.72;88.35
76040;SHT30;64736;50.462;4.850;2023-05-07T10:42:58;16.84;89.02
76040;SHT30;64736;50.462;4.850;2023-05-07T10:45:28;16.83;87.76
76040;SHT30;64736;50.462;4.850;2023-05-07T10:50:40;16.28;86.71
76040;SHT30;64736;50.462;4.850;2023-05-07T10:55:47;16.84;85.91
76040;SHT30;64736;50.462;4.850;2023-05-07T10:58:27;16.90;86.10
76040;SHT30;64736;50.462;4.850;2023-05-07T11:00:58;17.07;86.40
76040;SHT30;64736;50.462;4.850;2023-05-07T11:03:25;17.06;85.46
76040;SHT30;64736;50.462;4.850;2023-05-07T11:06:14;17.18;85.50
76040;SHT30;64736;50.462;4.850;2023-05-07T11:08:52;17.24;85.52
76040;SHT30;64736;50.462;4.850;2023-05-07T11:11:18;17.21;85.49
76040;SHT30;64736;50.462;4.850;2023-05-07T11:13:48;17.28;85.75
76040;SHT30;64736;50.462;4.850;2023-05-07T11:16:25;16.66;85.92
76040;SHT30;64736;50.462;4.850;2023-05-07T11:18:53;16.08;87.96
76040;SHT30;64736;50.462;4.850;2023-05-07T11:21:40;16.53;87.78
76040;SHT30;64736;50.462;4.850;2023-05-07T11:24:10;16.80;86.47
76040;SHT30;64736;50.462;4.850;2023-05-07T11:26:49;16.33;87.33
76040;SHT30;64736;50.462;4.850;2023-05-07T11:29:19;16.53;87.71
76040;SHT30;64736;50.462;4.850;2023-05-07T11:31:50;16.46;87.77
76040;SHT30;64736;50.462;4.850;2023-05-07T11:34:21;16.97;86.61
76040;SHT30;64736;50.462;4.850;2023-05-07T11:36:48;17.18;85.47
76040;SHT30;64736;50.462;4.850;2023-05-07T11:41:53;16.72;88.49
76040;SHT30;64736;50.462;4.850;2023-05-07T11:44:18;16.49;87.16
76040;SHT30;64736;50.462;4.850;2023-05-07T11:46:44;16.88;87.39
76040;SHT30;64736;50.462;4.850;2023-05-07T11:49:10;17.55;84.66
76040;SHT30;64736;50.462;4.850;2023-05-07T11:51:36;17.49;85.47
76040;SHT30;64736;50.462;4.850;2023-05-07T11:54:05;17.06;86.70
76040;SHT30;64736;50.462;4.850;2023-05-07T11:56:35;17.24;86.12
76040;SHT30;64736;50.462;4.850;2023-05-07T11:59:04;16.79;87.63
76040;SHT30;64736;50.462;4.850;2023-05-07T12:01:30;16.66;87.02
76040;SHT30;64736;50.462;4.850;2023-05-07T12:03:55;16.86;87.34
76040;SHT30;64736;50.462;4.850;2023-05-07T12:06:21;16.57;86.86
76040;SHT30;64736;50.462;4.850;2023-05-07T12:08:47;16.56;87.94
76040;SHT30;64736;50.462;4.850;2023-05-07T12:11:24;16.56;88.10
76040;SHT30;64736;50.462;4.850;2023-05-07T12:13:50;16.60;88.39
76040;SHT30;64736;50.462;4.850;2023-05-07T12:16:17;16.97;84.97
76040;SHT30;64736;50.462;4.850;2023-05-07T12:18:44;17.18;81.99
76040;SHT30;64736;50.462;4.850;2023-05-07T12:21:10;17.70;80.10
76040;SHT30;64736;50.462;4.850;2023-05-07T12:23:36;18.06;80.25
76040;SHT30;64736;50.462;4.850;2023-05-07T12:26:03;18.10;80.46
76040;SHT30;64736;50.462;4.850;2023-05-07T12:28:29;18.24;80.07
76040;SHT30;64736;50.462;4.850;2023-05-07T12:30:56;18.30;81.62
76040;SHT30;64736;50.462;4.850;2023-05-07T12:33:26;18.21;81.91
76040;SHT30;64736;50.462;4.850;2023-05-07T12:35:54;17.46;85.35
76040;SHT30;64736;50.462;4.850;2023-05-07T12:38:21;18.04;82.13
76040;SHT30;64736;50.462;4.850;2023-05-07T12:40:48;17.75;83.58
76040;SHT30;64736;50.462;4.850;2023-05-07T12:45:43;17.46;86.12
76040;SHT30;64736;50.462;4.850;2023-05-07T12:48:10;17.68;85.84
76040;SHT30;64736;50.462;4.850;2023-05-07T12:50:36;17.10;85.67
76040;SHT30;64736;50.462;4.850;2023-05-07T12:53:06;17.32;85.33
76040;SHT30;64736;50.462;4.850;2023-05-07T12:55:54;17.27;85.89
76040;SHT30;64736;50.462;4.850;2023-05-07T12:58:27;18.21;81.91
76040;SHT30;64736;50.462;4.850;2023-05-07T13:00:54;18.47;79.98
76040;SHT30;64736;50.462;4.850;2023-05-07T13:03:32;18.43;80.83
76040;SHT30;64736;50.462;4.850;2023-05-07T13:06:03;18.24;81.60
76040;SHT30;64736;50.462;4.850;2023-05-07T13:08:35;18.24;81.62
76040;SHT30;64736;50.462;4.850;2023-05-07T13:11:03;18.40;81.20
76040;SHT30;64736;50.462;4.850;2023-05-07T13:13:30;18.44;81.68
76040;SHT30;64736;50.462;4.850;2023-05-07T13:15:56;18.38;81.90
76040;SHT30;64736;50.462;4.850;2023-05-07T13:18:25;18.27;82.74
76040;SHT30;64736;50.462;4.850;2023-05-07T13:20:51;17.99;83.47
76040;SHT30;64736;50.462;4.850;2023-05-07T13:23:17;18.13;82.68
76040;SHT30;64736;50.462;4.850;2023-05-07T13:25:43;18.00;81.33
76040;SHT30;64736;50.462;4.850;2023-05-07T13:28:09;17.80;82.46
76040;SHT30;64736;50.462;4.850;2023-05-07T13:30:35;18.13;81.46
76040;SHT30;64736;50.462;4.850;2023-05-07T13:33:01;18.20;81.97
76040;SHT30;64736;50.462;4.850;2023-05-07T13:35:27;18.18;82.56
76040;SHT30;64736;50.462;4.850;2023-05-07T13:37:53;17.94;83.46
76040;SHT30;64736;50.462;4.850;2023-05-07T13:40:21;18.11;83.88
76040;SHT30;64736;50.462;4.850;2023-05-07T13:42:47;18.21;82.98
76040;SHT30;64736;50.462;4.850;2023-05-07T13:45:13;18.26;82.33
76040;SHT30;64736;50.462;4.850;2023-05-07T13:47:41;18.30;83.15
76040;SHT30;64736;50.462;4.850;2023-05-07T13:50:08;18.10;84.06
76040;SHT30;64736;50.462;4.850;2023-05-07T13:52:34;18.23;82.89
76040;SHT30;64736;50.462;4.850;2023-05-07T13:55:00;17.80;84.11
76040;SHT30;64736;50.462;4.850;2023-05-07T13:57:26;18.09;83.90
76040;SHT30;64736;50.462;4.850;2023-05-07T13:59:51;18.07;85.63
76040;SHT30;64736;50.462;4.850;2023-05-07T14:02:17;18.09;86.84
76040;SHT30;64736;50.462;4.850;2023-05-07T14:04:43;18.01;86.28
76040;SHT30;64736;50.462;4.850;2023-05-07T14:07:10;17.52;85.81
76040;SHT30;64736;50.462;4.850;2023-05-07T14:09:35;17.76;87.32
76040;SHT30;64736;50.462;4.850;2023-05-07T14:12:01;17.65;85.96
76040;SHT30;64736;50.462;4.850;2023-05-07T14:14:27;17.56;86.31
76040;SHT30;64736;50.462;4.850;2023-05-07T14:16:53;17.79;86.28
76040;SHT30;64736;50.462;4.850;2023-05-07T14:19:18;17.62;86.03
76040;SHT30;64736;50.462;4.850;2023-05-07T14:21:44;17.55;85.78
76040;SHT30;64736;50.462;4.850;2023-05-07T14:24:10;17.53;86.08
76040;SHT30;64736;50.462;4.850;2023-05-07T14:26:36;17.49;87.25
76040;SHT30;64736;50.462;4.850;2023-05-07T14:29:03;17.58;86.91
76040;SHT30;64736;50.462;4.850;2023-05-07T14:31:28;17.53;86.74
76040;SHT30;64736;50.462;4.850;2023-05-07T14:33:54;17.18;84.44
76040;SHT30;64736;50.462;4.850;2023-05-07T14:36:20;16.97;84.41
76040;SHT30;64736;50.462;4.850;2023-05-07T14:38:47;16.91;84.91
76040;SHT30;64736;50.462;4.850;2023-05-07T14:41:12;16.72;85.52
76040;SHT30;64736;50.462;4.850;2023-05-07T14:43:38;16.67;86.30
76040;SHT30;64736;50.462;4.850;2023-05-07T14:46:04;16.93;86.29
76040;SHT30;64736;50.462;4.850;2023-05-07T14:48:30;17.03;87.12
76040;SHT30;64736;50.462;4.850;2023-05-07T14:50:55;17.28;85.78
76040;SHT30;64736;50.462;4.850;2023-05-07T14:53:22;17.35;84.92
76040;SHT30;64736;50.462;4.850;2023-05-07T14:55:48;17.73;84.44
76040;SHT30;64736;50.462;4.850;2023-05-07T14:58:14;17.55;84.33
76040;SHT30;64736;50.462;4.850;2023-05-07T15:00:40;17.66;84.13
76040;SHT30;64736;50.462;4.850;2023-05-07T15:03:08;17.62;83.87
76040;SHT30;64736;50.462;4.850;2023-05-07T15:05:34;17.65;83.85
76040;SHT30;64736;50.462;4.850;2023-05-07T15:08:00;17.69;84.19
76040;SHT30;64736;50.462;4.850;2023-05-07T15:10:26;17.36;84.91
76040;SHT30;64736;50.462;4.850;2023-05-07T15:12:52;17.79;84.73
76040;SHT30;64736;50.462;4.850;2023-05-07T15:15:17;17.20;83.35
76040;SHT30;64736;50.462;4.850;2023-05-07T15:17:43;17.11;85.93
76040;SHT30;64736;50.462;4.850;2023-05-07T15:20:09;17.53;86.37
76040;SHT30;64736;50.462;4.850;2023-05-07T15:22:35;17.32;83.68
76040;SHT30;64736;50.462;4.850;2023-05-07T15:25:03;17.69;83.65
76040;SHT30;64736;50.462;4.850;2023-05-07T15:27:30;18.38;82.94
76040;SHT30;64736;50.462;4.850;2023-05-07T15:29:56;18.04;82.62
76040;SHT30;64736;50.462;4.850;2023-05-07T15:32:22;17.70;83.01
76040;SHT30;64736;50.462;4.850;2023-05-07T15:34:48;19.31;77.79
76040;SHT30;64736;50.462;4.850;2023-05-07T15:37:14;18.91;79.05
76040;SHT30;64736;50.462;4.850;2023-05-07T15:39:39;19.47;74.89
76040;SHT30;64736;50.462;4.850;2023-05-07T15:42:05;18.85;75.82
76040;SHT30;64736;50.462;4.850;2023-05-07T15:44:31;19.02;76.54
76040;SHT30;64736;50.462;4.850;2023-05-07T15:47:00;18.13;77.09
76040;SHT30;64736;50.462;4.850;2023-05-07T15:49:26;18.20;76.43